createdAt,value
2018-03-22T17:56:07.670Z,0.72
2018-03-22T17:56:58.023Z,0.72
2018-03-22T17:57:47.192Z,0.57
2018-03-22T17:58:36.248Z,0.63
2018-03-22T17:59:25.390Z,0.68
2018-03-22T18:00:14.468Z,0.77
2018-03-22T18:01:03.557Z,0.93
2018-03-22T18:01:52.661Z,1.02
2018-03-22T18:02:41.740Z,1.09
2018-03-22T18:03:30.869Z,1.04
2018-03-22T18:04:19.928Z,0.91
2018-03-22T18:05:08.992Z,0.96
2018-03-22T18:05:58.102Z,0.97
2018-03-22T18:06:47.162Z,1.03
2018-03-22T18:07:36.595Z,1.06
2018-03-22T18:08:25.657Z,1.07
2018-03-22T18:09:14.785Z,0.99
2018-03-22T18:10:03.943Z,0.99
2018-03-22T18:10:53.049Z,1.04
2018-03-22T18:11:42.180Z,0.88
2018-03-22T18:12:31.790Z,0.76
2018-03-22T18:13:20.958Z,0.67
2018-03-22T18:14:10.341Z,0.56
2018-03-22T18:14:59.751Z,0.50
2018-03-22T18:15:48.932Z,0.55
2018-03-22T18:16:38.382Z,0.63
2018-03-22T18:17:27.765Z,0.78
2018-03-22T18:18:17.373Z,0.86
2018-03-22T18:19:06.485Z,0.89
2018-03-22T18:19:55.631Z,0.79
2018-03-22T18:20:44.705Z,0.71
2018-03-22T18:21:33.758Z,0.69
2018-03-22T18:22:22.901Z,0.80
2018-03-22T18:23:12.001Z,0.83
2018-03-22T18:24:01.241Z,0.89
2018-03-22T18:24:50.356Z,1.07
2018-03-22T18:25:39.418Z,1.06
2018-03-22T18:26:28.494Z,1.15
2018-03-22T18:27:17.567Z,1.14
2018-03-22T18:28:06.675Z,1.13
2018-03-22T18:28:55.746Z,0.95
2018-03-22T18:29:44.819Z,0.71
2018-03-22T18:30:33.872Z,0.63
2018-03-22T18:31:22.922Z,0.54
2018-03-22T18:32:11.997Z,0.33
2018-03-22T18:33:01.127Z,0.27
2018-03-22T18:33:50.649Z,0.21
2018-03-22T18:34:39.767Z,0.31
2018-03-22T18:35:28.949Z,0.26
2018-03-22T18:36:17.922Z,0.42
2018-03-22T18:37:07.142Z,0.55
2018-03-22T18:37:56.271Z,0.38
2018-03-22T18:38:45.353Z,0.48
2018-03-22T18:39:34.415Z,0.54
2018-03-22T18:40:23.575Z,0.38
2018-03-22T18:41:12.651Z,0.42
2018-03-22T18:42:01.761Z,0.64
2018-03-22T18:42:50.981Z,0.67
2018-03-22T18:43:40.069Z,0.80
2018-03-22T18:44:29.134Z,0.89
2018-03-22T18:45:18.198Z,0.95
2018-03-22T18:46:07.288Z,1.03
2018-03-22T18:46:56.390Z,1.08
2018-03-22T18:47:45.486Z,1.08
2018-03-22T18:48:34.844Z,1.15
2018-03-22T18:49:23.967Z,1.14
2018-03-22T18:50:13.118Z,1.17
2018-03-22T18:51:02.220Z,1.04
2018-03-22T18:51:51.327Z,1.00
2018-03-22T18:52:40.388Z,0.76
2018-03-22T18:53:29.445Z,0.67
2018-03-22T18:54:18.497Z,0.86
2018-03-22T18:55:07.565Z,0.87
2018-03-22T18:55:56.628Z,1.06
2018-03-22T18:56:46.041Z,1.51
2018-03-22T18:57:35.154Z,1.37
2018-03-22T18:58:24.205Z,1.59
2018-03-22T18:59:13.306Z,1.80
2018-03-22T19:00:02.367Z,2.00
2018-03-22T19:00:51.457Z,1.94
2018-03-22T19:01:40.940Z,1.64
2018-03-22T19:02:30.037Z,1.25
2018-03-22T19:03:19.157Z,1.28
2018-03-22T19:04:08.323Z,1.27
2018-03-22T19:04:57.393Z,1.09
2018-03-22T19:05:46.449Z,0.99
2018-03-22T19:06:35.534Z,1.11
2018-03-22T19:07:24.585Z,1.14
2018-03-22T19:08:13.644Z,1.19
2018-03-22T19:09:02.706Z,1.22
2018-03-22T19:09:51.823Z,0.95
2018-03-22T19:10:40.878Z,0.74
2018-03-22T19:11:29.976Z,0.86
2018-03-22T19:12:19.009Z,0.86
2018-03-22T19:13:08.093Z,0.88
2018-03-22T19:13:57.159Z,0.87
2018-03-22T19:14:46.241Z,0.93
2018-03-22T19:15:35.615Z,0.96
2018-03-22T19:16:24.673Z,0.94
2018-03-22T19:17:13.730Z,0.87
2018-03-22T19:18:02.791Z,0.87
2018-03-22T19:18:51.916Z,0.88
2018-03-22T19:19:40.978Z,0.93
2018-03-22T19:20:30.034Z,0.93
2018-03-22T19:21:19.148Z,0.85
2018-03-22T19:22:08.356Z,0.85
2018-03-22T19:22:57.443Z,0.86
2018-03-22T19:23:46.526Z,0.81
2018-03-22T19:24:35.610Z,0.74
2018-03-22T19:25:24.678Z,0.78
2018-03-22T19:26:13.775Z,0.73
2018-03-22T19:27:02.879Z,0.81
2018-03-22T19:27:51.992Z,0.74
2018-03-22T19:28:41.051Z,0.71
2018-03-22T19:29:30.114Z,0.48
2018-03-22T19:30:20.112Z,0.48
2018-03-22T19:31:09.183Z,0.31
2018-03-22T19:31:58.255Z,0.32
2018-03-22T19:32:47.313Z,0.36
2018-03-22T19:33:36.418Z,0.38
2018-03-22T19:34:25.491Z,0.22
2018-03-22T19:35:14.555Z,0.31
2018-03-22T19:36:03.642Z,0.18
2018-03-22T19:36:52.716Z,0.26
2018-03-22T19:37:41.778Z,0.28
2018-03-22T19:38:30.837Z,0.21
2018-03-22T19:39:20.118Z,0.20
2018-03-22T19:40:09.176Z,0.32
2018-03-22T19:40:58.237Z,0.36
2018-03-22T19:41:47.318Z,0.39
2018-03-22T19:42:36.401Z,0.26
2018-03-22T19:43:25.565Z,0.38
2018-03-22T19:44:14.632Z,0.46
2018-03-22T19:45:03.729Z,0.58
2018-03-22T19:45:52.784Z,0.58
2018-03-22T19:46:41.871Z,0.65
2018-03-22T19:47:31.004Z,0.60
2018-03-22T19:48:20.072Z,0.64
2018-03-22T19:49:09.163Z,0.68
2018-03-22T19:49:58.230Z,0.72
2018-03-22T19:50:47.281Z,0.69
2018-03-22T19:51:36.350Z,0.73
2018-03-22T19:52:25.415Z,0.47
2018-03-22T19:53:14.526Z,0.25
2018-03-22T19:54:03.986Z,0.29
2018-03-22T19:54:54.245Z,0.29
2018-03-22T19:55:43.317Z,0.13
2018-03-22T19:56:32.383Z,0.11
2018-03-22T19:57:21.529Z,0.19
2018-03-22T19:58:10.579Z,0.25
2018-03-22T19:59:00.038Z,0.29
2018-03-22T19:59:49.120Z,0.24
2018-03-22T20:00:38.186Z,0.17
2018-03-22T20:01:27.250Z,0.29
2018-03-22T20:02:16.318Z,0.21
2018-03-22T20:03:05.495Z,0.41
2018-03-22T20:03:54.546Z,0.46
2018-03-22T20:04:43.611Z,0.38
2018-03-22T20:05:32.689Z,0.39
2018-03-22T20:06:21.811Z,0.48
2018-03-22T20:07:11.134Z,0.54
2018-03-22T20:08:14.067Z,0.50
2018-03-22T20:09:03.355Z,0.47
2018-03-22T20:09:52.516Z,0.50
2018-03-22T20:10:41.573Z,0.46
2018-03-22T20:11:30.644Z,0.48
2018-03-22T20:12:19.707Z,0.48
2018-03-22T20:13:08.771Z,0.58
2018-03-22T20:13:57.886Z,0.41
2018-03-22T20:14:46.981Z,0.40
2018-03-22T20:15:36.040Z,0.52
2018-03-22T20:16:25.094Z,0.52
2018-03-22T20:17:14.318Z,0.63
2018-03-22T20:18:03.411Z,0.56
2018-03-22T20:18:52.506Z,0.47
2018-03-22T20:19:41.564Z,0.57
2018-03-22T20:20:30.629Z,0.62
2018-03-22T20:21:19.685Z,0.65
2018-03-22T20:22:08.740Z,0.42
2018-03-22T20:22:58.779Z,0.56
2018-03-22T20:23:47.840Z,0.64
2018-03-22T20:24:36.890Z,0.40
2018-03-22T20:25:25.951Z,0.30
2018-03-22T20:26:15.018Z,0.42
2018-03-22T20:27:04.082Z,0.53
2018-03-22T20:27:53.144Z,0.38
2018-03-22T20:28:43.064Z,0.46
2018-03-22T20:29:32.403Z,0.34
2018-03-22T20:30:21.458Z,0.38
2018-03-22T20:31:10.557Z,0.52
2018-03-22T20:31:59.619Z,0.56
2018-03-22T20:32:48.725Z,0.61
2018-03-22T20:33:37.810Z,0.66
2018-03-22T20:34:26.912Z,0.69
2018-03-22T20:35:15.944Z,0.74
2018-03-22T20:36:05.121Z,0.63
2018-03-22T20:36:54.183Z,0.72
2018-03-22T20:37:43.232Z,0.53
2018-03-22T20:38:32.408Z,0.43
2018-03-22T20:39:21.480Z,0.55
2018-03-22T20:40:10.574Z,0.65
2018-03-22T20:40:59.648Z,0.70
2018-03-22T20:41:48.731Z,0.57
2018-03-22T20:42:37.798Z,0.62
2018-03-22T20:43:26.860Z,0.44
2018-03-22T20:44:15.955Z,0.27
2018-03-22T20:45:05.001Z,0.30
2018-03-22T20:45:54.093Z,0.40
2018-03-22T20:46:43.151Z,0.48
2018-03-22T20:47:32.283Z,0.55
2018-03-22T20:48:21.341Z,0.44
2018-03-22T20:49:10.406Z,0.36
2018-03-22T20:49:59.510Z,0.47
2018-03-22T20:50:48.557Z,0.54
2018-03-22T20:51:37.658Z,0.55
2018-03-22T20:52:26.731Z,0.52
2018-03-22T20:53:15.789Z,0.54
2018-03-22T20:54:04.887Z,0.40
2018-03-22T20:54:53.953Z,0.51
2018-03-22T20:55:43.108Z,0.55
2018-03-22T20:56:32.171Z,0.54
2018-03-22T20:57:21.233Z,0.59
2018-03-22T20:58:10.293Z,0.60
2018-03-22T20:58:59.349Z,0.63
2018-03-22T20:59:48.477Z,0.62
2018-03-22T21:00:37.538Z,0.61
2018-03-22T21:01:26.615Z,0.58
2018-03-22T21:02:15.695Z,0.57
2018-03-22T21:03:04.774Z,0.53
2018-03-22T21:03:53.972Z,0.51
2018-03-22T21:04:43.382Z,0.47
2018-03-22T21:05:32.439Z,0.44
2018-03-22T21:06:21.512Z,0.46
2018-03-22T21:07:10.561Z,0.52
2018-03-22T21:07:59.622Z,0.42
2018-03-22T21:08:48.714Z,0.36
2018-03-22T21:09:37.813Z,0.36
2018-03-22T21:10:26.859Z,0.28
2018-03-22T21:11:15.912Z,0.21
2018-03-22T21:12:04.978Z,0.29
2018-03-22T21:12:54.031Z,0.44
2018-03-22T21:13:43.084Z,0.52
2018-03-22T21:14:32.129Z,0.54
2018-03-22T21:15:21.405Z,0.63
2018-03-22T21:16:10.461Z,0.72
2018-03-22T21:16:59.522Z,0.56
2018-03-22T21:17:48.591Z,0.51
2018-03-22T21:18:37.642Z,0.24
2018-03-22T21:19:26.698Z,0.26
2018-03-22T21:20:15.807Z,0.43
2018-03-22T21:21:04.870Z,0.47
2018-03-22T21:21:53.976Z,0.42
2018-03-22T21:22:43.026Z,0.17
2018-03-22T21:23:32.091Z,0.07
2018-03-22T21:24:21.146Z,0.02
2018-03-22T21:25:10.204Z,0.23
2018-03-22T21:25:59.273Z,0.31
2018-03-22T21:26:48.367Z,0.39
2018-03-22T21:27:37.513Z,0.40
2018-03-22T21:28:26.560Z,0.46
2018-03-22T21:29:15.652Z,0.54
2018-03-22T21:30:04.762Z,0.58
2018-03-22T21:30:53.822Z,0.63
2018-03-22T21:31:42.869Z,0.61
2018-03-22T21:32:31.923Z,0.47
2018-03-22T21:33:21.099Z,0.44
2018-03-22T21:34:10.168Z,0.47
2018-03-22T21:34:59.216Z,0.42
2018-03-22T21:35:48.272Z,0.32
2018-03-22T21:36:37.365Z,0.35
2018-03-22T21:37:26.420Z,0.18
2018-03-22T21:38:15.464Z,0.19
2018-03-22T21:39:04.648Z,0.17
2018-03-22T21:39:53.704Z,0.19
2018-03-22T21:40:42.750Z,0.38
2018-03-22T21:41:31.809Z,0.46
2018-03-22T21:42:20.864Z,0.46
2018-03-22T21:43:09.921Z,0.45
2018-03-22T21:44:10.883Z,0.39
2018-03-22T21:44:59.973Z,0.05
2018-03-22T21:45:49.083Z,-0.13
2018-03-22T21:46:38.162Z,-0.25
2018-03-22T21:47:32.236Z,-0.13
2018-03-22T21:48:21.304Z,-0.02
2018-03-22T21:49:10.391Z,-0.20
2018-03-22T21:49:59.541Z,-0.23
2018-03-22T21:50:49.439Z,-0.28
2018-03-22T21:51:38.598Z,-0.10
2018-03-22T21:52:39.501Z,0.03
2018-03-22T21:53:28.564Z,0.12
2018-03-22T21:54:17.612Z,0.03
2018-03-22T21:55:06.719Z,-0.29
2018-03-22T21:55:55.777Z,-0.37
2018-03-22T21:56:44.838Z,-0.29
2018-03-22T21:57:33.897Z,-0.15
2018-03-22T21:58:22.945Z,-0.07
2018-03-22T21:59:12.005Z,-0.26
2018-03-22T22:00:01.090Z,-0.42
2018-03-22T22:00:50.244Z,-0.43
2018-03-22T22:01:39.326Z,-0.39
2018-03-22T22:02:28.385Z,-0.43
2018-03-22T22:03:17.449Z,-0.61
2018-03-22T22:04:06.509Z,-0.53
2018-03-22T22:04:55.593Z,-0.46
2018-03-22T22:05:44.658Z,-0.36
2018-03-22T22:06:33.864Z,-0.30
2018-03-22T22:07:22.945Z,-0.15
2018-03-22T22:08:12.001Z,-0.03
2018-03-22T22:09:01.065Z,0.03
2018-03-22T22:09:50.112Z,0.10
2018-03-22T22:10:39.210Z,0.15
2018-03-22T22:11:28.282Z,0.18
2018-03-22T22:12:17.333Z,0.25
2018-03-22T22:13:06.372Z,0.29
2018-03-22T22:13:55.427Z,0.28
2018-03-22T22:14:44.472Z,0.15
2018-03-22T22:15:33.642Z,0.21
2018-03-22T22:16:22.689Z,0.01
2018-03-22T22:17:11.748Z,-0.01
2018-03-22T22:18:00.805Z,0.02
2018-03-22T22:18:49.860Z,0.18
2018-03-22T22:19:38.910Z,0.24
2018-03-22T22:20:27.966Z,0.27
2018-03-22T22:21:17.053Z,0.13
2018-03-22T22:22:06.097Z,0.05
2018-03-22T22:22:55.142Z,0.14
2018-03-22T22:23:44.184Z,0.15
2018-03-22T22:24:33.232Z,0.20
2018-03-22T22:25:22.280Z,0.25
2018-03-22T22:26:12.163Z,0.26
2018-03-22T22:27:01.287Z,0.23
2018-03-22T22:27:50.321Z,0.26
2018-03-22T22:28:39.369Z,0.24
2018-03-22T22:29:28.410Z,0.18
2018-03-22T22:30:17.478Z,0.06
2018-03-22T22:31:06.527Z,0.16
2018-03-22T22:31:55.582Z,0.13
2018-03-22T22:32:44.821Z,0.20
2018-03-22T22:33:33.879Z,0.01
2018-03-22T22:34:22.924Z,0.05
2018-03-22T22:35:11.969Z,0.07
2018-03-22T22:36:01.036Z,-0.02
2018-03-22T22:36:50.097Z,0.05
2018-03-22T22:37:39.142Z,-0.01
2018-03-22T22:38:28.346Z,0.04
2018-03-22T22:39:17.420Z,0.01
2018-03-22T22:40:06.470Z,0.02
2018-03-22T22:40:55.513Z,0.03
2018-03-22T22:41:44.561Z,-0.02
2018-03-22T22:42:33.616Z,-0.07
2018-03-22T22:43:22.671Z,-0.14
2018-03-22T22:44:11.773Z,-0.14
2018-03-22T22:45:00.827Z,-0.08
2018-03-22T22:45:49.878Z,-0.10
2018-03-22T22:46:38.930Z,-0.06
2018-03-22T22:47:27.988Z,-0.03
2018-03-22T22:48:17.044Z,-0.14
2018-03-22T22:49:06.101Z,-0.16
2018-03-22T22:49:55.194Z,-0.23
2018-03-22T22:50:44.252Z,-0.17
2018-03-22T22:51:33.490Z,-0.12
2018-03-22T22:52:22.540Z,-0.17
2018-03-22T22:53:11.590Z,-0.26
2018-03-22T22:54:00.636Z,-0.32
2018-03-22T22:54:49.687Z,-0.32
2018-03-22T22:55:38.924Z,-0.38
2018-03-22T22:56:27.971Z,-0.37
2018-03-22T22:57:17.023Z,-0.36
2018-03-22T22:58:06.075Z,-0.47
2018-03-22T22:58:55.136Z,-0.51
2018-03-22T22:59:44.181Z,-0.43
2018-03-22T23:00:33.230Z,-0.44
2018-03-22T23:01:22.444Z,-0.53
2018-03-22T23:02:11.488Z,-0.51
2018-03-22T23:03:00.651Z,-0.52
2018-03-22T23:03:49.705Z,-0.48
2018-03-22T23:04:38.749Z,-0.42
2018-03-22T23:05:27.824Z,-0.39
2018-03-22T23:06:16.982Z,-0.51
2018-03-22T23:07:06.055Z,-0.68
2018-03-22T23:07:55.100Z,-0.73
2018-03-22T23:08:44.165Z,-0.78
2018-03-22T23:09:33.229Z,-0.83
2018-03-22T23:10:22.376Z,-0.73
2018-03-22T23:11:11.422Z,-0.81
2018-03-22T23:12:00.472Z,-0.82
2018-03-22T23:12:49.516Z,-0.78
2018-03-22T23:13:38.561Z,-0.79
2018-03-22T23:14:27.613Z,-0.85
2018-03-22T23:15:16.663Z,-0.90
2018-03-22T23:16:05.778Z,-0.91
2018-03-22T23:16:54.826Z,-0.80
2018-03-22T23:17:43.872Z,-0.70
2018-03-22T23:18:32.948Z,-0.62
2018-03-22T23:19:21.995Z,-0.61
2018-03-22T23:20:11.085Z,-0.59
2018-03-22T23:21:00.139Z,-0.64
2018-03-22T23:21:49.186Z,-0.55
2018-03-22T23:22:38.234Z,-0.68
2018-03-22T23:23:27.290Z,-0.57
2018-03-22T23:24:16.342Z,-0.36
2018-03-22T23:25:05.512Z,-0.28
2018-03-22T23:25:54.589Z,-0.17
2018-03-22T23:26:43.638Z,-0.24
2018-03-22T23:27:32.678Z,-0.19
2018-03-22T23:28:21.882Z,-0.15
2018-03-22T23:29:10.918Z,-0.10
2018-03-22T23:29:59.968Z,-0.09
2018-03-22T23:30:49.104Z,-0.01
2018-03-22T23:31:38.148Z,0.06
2018-03-22T23:32:27.200Z,0.13
2018-03-22T23:33:16.268Z,0.16
2018-03-22T23:34:05.379Z,0.18
2018-03-22T23:34:54.627Z,0.22
2018-03-22T23:35:43.699Z,0.28
2018-03-22T23:36:32.781Z,0.30
2018-03-22T23:37:21.838Z,0.35
2018-03-22T23:38:10.891Z,0.39
2018-03-22T23:39:00.035Z,0.42
2018-03-22T23:39:49.096Z,0.42
2018-03-22T23:40:38.140Z,0.38
2018-03-22T23:41:27.190Z,0.39
2018-03-22T23:42:16.250Z,0.41
2018-03-22T23:43:05.532Z,0.47
2018-03-22T23:43:54.578Z,0.50
2018-03-22T23:44:43.702Z,0.42
2018-03-22T23:45:32.752Z,0.41
2018-03-22T23:46:21.793Z,0.33
2018-03-22T23:47:10.876Z,0.33
2018-03-22T23:47:59.923Z,0.39
2018-03-22T23:48:48.961Z,0.34
2018-03-22T23:49:38.041Z,0.36
2018-03-22T23:50:27.120Z,0.41
2018-03-22T23:51:16.161Z,0.41
2018-03-22T23:52:05.197Z,0.40
2018-03-22T23:52:54.285Z,0.32
2018-03-22T23:53:43.342Z,0.27
2018-03-22T23:54:32.400Z,0.36
2018-03-22T23:55:21.433Z,0.34
2018-03-22T23:56:10.484Z,0.32
2018-03-22T23:56:59.519Z,0.23
2018-03-22T23:57:48.550Z,0.28
2018-03-22T23:58:37.767Z,0.42
2018-03-22T23:59:26.818Z,0.45
